sensor_id;sensor_type;location;lat;lon;timestamp;P1;durP1;ratioP1;P2;durP2;ratioP2
9156;SDS011;4613;48.392;9.998;2022-07-29T00:00:57;5.50;;;4.50;;
9156;SDS011;4613;48.392;9.998;2022-07-29T00:03:28;5.17;;;4.33;;
9156;SDS011;4613;48.392;9.998;2022-07-29T00:05:59;4.97;;;4.50;;
9156;SDS011;4613;48.392;9.998;2022-07-29T00:08:30;5.10;;;4.60;;
9156;SDS011;4613;48.392;9.998;2022-07-29T00:11:01;6.73;;;4.53;;
9156;SDS011;4613;48.392;9.998;2022-07-29T00:13:32;8.07;;;5.37;;
9156;SDS011;4613;48.392;9.998;2022-07-29T00:16:03;10.07;;;7.87;;
9156;SDS011;4613;48.392;9.998;2022-07-29T00:18:34;8.83;;;7.07;;
9156;SDS011;4613;48.392;9.998;2022-07-29T00:21:05;8.20;;;7.40;;
9156;SDS011;4613;48.392;9.998;2022-07-29T00:23:37;8.00;;;7.20;;
9156;SDS011;4613;48.392;9.998;2022-07-29T00:26:08;8.67;;;6.90;;
9156;SDS011;4613;48.392;9.998;2022-07-29T00:28:38;7.67;;;6.87;;
9156;SDS011;4613;48.392;9.998;2022-07-29T00:31:09;7.13;;;6.13;;
9156;SDS011;4613;48.392;9.998;2022-07-29T00:33:40;8.23;;;6.83;;
9156;SDS011;4613;48.392;9.998;2022-07-29T00:36:11;7.23;;;6.53;;
9156;SDS011;4613;48.392;9.998;2022-07-29T00:38:42;7.73;;;6.93;;
9156;SDS011;4613;48.392;9.998;2022-07-29T00:41:15;7.70;;;6.80;;
9156;SDS011;4613;48.392;9.998;2022-07-29T00:43:46;7.67;;;6.87;;
9156;SDS011;4613;48.392;9.998;2022-07-29T00:46:17;9.67;;;7.90;;
9156;SDS011;4613;48.392;9.998;2022-07-29T00:48:48;8.37;;;7.50;;
9156;SDS011;4613;48.392;9.998;2022-07-29T00:51:19;9.63;;;7.80;;
9156;SDS011;4613;48.392;9.998;2022-07-29T00:53:50;9.40;;;8.23;;
9156;SDS011;4613;48.392;9.998;2022-07-29T00:56:21;10.13;;;7.17;;
9156;SDS011;4613;48.392;9.998;2022-07-29T00:58:52;10.63;;;7.50;;
9156;SDS011;4613;48.392;9.998;2022-07-29T01:01:24;7.30;;;6.30;;
9156;SDS011;4613;48.392;9.998;2022-07-29T01:03:55;7.90;;;7.10;;
9156;SDS011;4613;48.392;9.998;2022-07-29T01:06:26;7.60;;;6.90;;
9156;SDS011;4613;48.392;9.998;2022-07-29T01:08:57;7.63;;;6.83;;
9156;SDS011;4613;48.392;9.998;2022-07-29T01:11:28;7.70;;;6.50;;
9156;SDS011;4613;48.392;9.998;2022-07-29T01:14:00;8.47;;;6.93;;
9156;SDS011;4613;48.392;9.998;2022-07-29T01:16:32;7.10;;;6.33;;
9156;SDS011;4613;48.392;9.998;2022-07-29T01:19:38;7.23;;;6.30;;
9156;SDS011;4613;48.392;9.998;2022-07-29T01:22:12;7.97;;;7.17;;
9156;SDS011;4613;48.392;9.998;2022-07-29T01:25:25;8.00;;;7.20;;
9156;SDS011;4613;48.392;9.998;2022-07-29T01:28:33;9.17;;;7.77;;
9156;SDS011;4613;48.392;9.998;2022-07-29T01:31:35;8.97;;;7.37;;
9156;SDS011;4613;48.392;9.998;2022-07-29T01:34:17;8.80;;;7.57;;
9156;SDS011;4613;48.392;9.998;2022-07-29T01:37:04;7.80;;;7.00;;
9156;SDS011;4613;48.392;9.998;2022-07-29T01:39:49;7.50;;;6.80;;
9156;SDS011;4613;48.392;9.998;2022-07-29T01:42:27;7.60;;;6.77;;
9156;SDS011;4613;48.392;9.998;2022-07-29T01:45:08;8.03;;;7.33;;
9156;SDS011;4613;48.392;9.998;2022-07-29T01:48:35;7.43;;;6.77;;
9156;SDS011;4613;48.392;9.998;2022-07-29T01:51:14;6.47;;;5.97;;
9156;SDS011;4613;48.392;9.998;2022-07-29T01:56:56;7.83;;;7.03;;
9156;SDS011;4613;48.392;9.998;2022-07-29T01:59:30;12.67;;;7.90;;
9156;SDS011;4613;48.392;9.998;2022-07-29T02:02:03;9.77;;;7.97;;
9156;SDS011;4613;48.392;9.998;2022-07-29T02:04:38;9.00;;;7.43;;
9156;SDS011;4613;48.392;9.998;2022-07-29T02:07:12;8.10;;;7.40;;
9156;SDS011;4613;48.392;9.998;2022-07-29T02:09:47;8.63;;;7.80;;
9156;SDS011;4613;48.392;9.998;2022-07-29T02:12:19;8.30;;;7.40;;
9156;SDS011;4613;48.392;9.998;2022-07-29T02:14:52;9.40;;;7.97;;
9156;SDS011;4613;48.392;9.998;2022-07-29T02:17:25;8.57;;;7.77;;
9156;SDS011;4613;48.392;9.998;2022-07-29T02:20:02;8.93;;;8.03;;
9156;SDS011;4613;48.392;9.998;2022-07-29T02:22:35;8.73;;;7.87;;
9156;SDS011;4613;48.392;9.998;2022-07-29T02:25:08;8.30;;;7.50;;
9156;SDS011;4613;48.392;9.998;2022-07-29T02:27:41;10.23;;;8.17;;
9156;SDS011;4613;48.392;9.998;2022-07-29T02:30:13;9.27;;;8.00;;
9156;SDS011;4613;48.392;9.998;2022-07-29T02:32:46;8.93;;;8.03;;
9156;SDS011;4613;48.392;9.998;2022-07-29T02:35:17;8.80;;;8.00;;
9156;SDS011;4613;48.392;9.998;2022-07-29T02:37:50;8.53;;;7.63;;
9156;SDS011;4613;48.392;9.998;2022-07-29T02:40:44;9.00;;;8.20;;
9156;SDS011;4613;48.392;9.998;2022-07-29T02:43:16;9.50;;;8.07;;
9156;SDS011;4613;48.392;9.998;2022-07-29T02:45:50;8.30;;;7.40;;
9156;SDS011;4613;48.392;9.998;2022-07-29T02:48:25;8.10;;;7.30;;
9156;SDS011;4613;48.392;9.998;2022-07-29T02:51:08;8.53;;;7.80;;
9156;SDS011;4613;48.392;9.998;2022-07-29T02:53:49;8.27;;;7.40;;
9156;SDS011;4613;48.392;9.998;2022-07-29T02:56:23;7.83;;;7.13;;
9156;SDS011;4613;48.392;9.998;2022-07-29T02:58:58;8.63;;;7.73;;
9156;SDS011;4613;48.392;9.998;2022-07-29T03:01:33;8.40;;;7.60;;
9156;SDS011;4613;48.392;9.998;2022-07-29T03:04:05;9.67;;;7.97;;
9156;SDS011;4613;48.392;9.998;2022-07-29T03:06:39;9.57;;;8.10;;
9156;SDS011;4613;48.392;9.998;2022-07-29T03:09:12;9.33;;;8.43;;
9156;SDS011;4613;48.392;9.998;2022-07-29T03:11:44;9.17;;;7.97;;
9156;SDS011;4613;48.392;9.998;2022-07-29T03:14:16;9.87;;;8.30;;
9156;SDS011;4613;48.392;9.998;2022-07-29T03:16:49;9.37;;;8.47;;
9156;SDS011;4613;48.392;9.998;2022-07-29T03:19:21;10.20;;;8.23;;
9156;SDS011;4613;48.392;9.998;2022-07-29T03:21:52;8.83;;;8.03;;
9156;SDS011;4613;48.392;9.998;2022-07-29T03:24:32;8.73;;;7.93;;
9156;SDS011;4613;48.392;9.998;2022-07-29T03:27:05;11.47;;;8.67;;
9156;SDS011;4613;48.392;9.998;2022-07-29T03:29:36;9.43;;;8.57;;
9156;SDS011;4613;48.392;9.998;2022-07-29T03:32:07;9.13;;;8.23;;
9156;SDS011;4613;48.392;9.998;2022-07-29T03:34:38;9.30;;;8.33;;
9156;SDS011;4613;48.392;9.998;2022-07-29T03:37:09;8.80;;;8.00;;
9156;SDS011;4613;48.392;9.998;2022-07-29T03:39:40;8.00;;;7.30;;
9156;SDS011;4613;48.392;9.998;2022-07-29T03:42:13;9.20;;;8.30;;
9156;SDS011;4613;48.392;9.998;2022-07-29T03:44:47;9.50;;;7.90;;
9156;SDS011;4613;48.392;9.998;2022-07-29T03:47:21;9.13;;;8.23;;
9156;SDS011;4613;48.392;9.998;2022-07-29T03:49:57;8.63;;;7.73;;
9156;SDS011;4613;48.392;9.998;2022-07-29T03:52:31;8.53;;;7.63;;
9156;SDS011;4613;48.392;9.998;2022-07-29T03:55:03;8.50;;;7.70;;
9156;SDS011;4613;48.392;9.998;2022-07-29T03:57:35;11.33;;;8.30;;
9156;SDS011;4613;48.392;9.998;2022-07-29T04:00:08;10.77;;;8.37;;
9156;SDS011;4613;48.392;9.998;2022-07-29T04:02:40;8.83;;;7.70;;
9156;SDS011;4613;48.392;9.998;2022-07-29T04:05:17;9.93;;;7.87;;
9156;SDS011;4613;48.392;9.998;2022-07-29T04:07:48;7.97;;;7.17;;
9156;SDS011;4613;48.392;9.998;2022-07-29T04:10:19;8.80;;;7.97;;
9156;SDS011;4613;48.392;9.998;2022-07-29T04:12:50;8.47;;;7.10;;
9156;SDS011;4613;48.392;9.998;2022-07-29T04:15:22;7.47;;;6.73;;
9156;SDS011;4613;48.392;9.998;2022-07-29T04:17:54;7.07;;;6.37;;
9156;SDS011;4613;48.392;9.998;2022-07-29T04:20:25;7.00;;;6.30;;
9156;SDS011;4613;48.392;9.998;2022-07-29T04:23:16;6.80;;;6.10;;
9156;SDS011;4613;48.392;9.998;2022-07-29T04:25:47;6.30;;;5.70;;
9156;SDS011;4613;48.392;9.998;2022-07-29T04:28:18;8.23;;;6.00;;
9156;SDS011;4613;48.392;9.998;2022-07-29T04:30:49;6.67;;;5.90;;
9156;SDS011;4613;48.392;9.998;2022-07-29T04:33:19;6.53;;;5.63;;
9156;SDS011;4613;48.392;9.998;2022-07-29T04:35:52;6.00;;;5.40;;
9156;SDS011;4613;48.392;9.998;2022-07-29T04:38:23;5.80;;;5.30;;
9156;SDS011;4613;48.392;9.998;2022-07-29T04:40:54;6.07;;;5.57;;
9156;SDS011;4613;48.392;9.998;2022-07-29T04:43:29;5.07;;;4.63;;
9156;SDS011;4613;48.392;9.998;2022-07-29T04:46:00;6.40;;;5.80;;
9156;SDS011;4613;48.392;9.998;2022-07-29T04:48:32;5.27;;;4.77;;
9156;SDS011;4613;48.392;9.998;2022-07-29T04:51:03;5.10;;;4.50;;
9156;SDS011;4613;48.392;9.998;2022-07-29T04:53:34;5.27;;;4.40;;
9156;SDS011;4613;48.392;9.998;2022-07-29T04:56:05;4.83;;;4.30;;
9156;SDS011;4613;48.392;9.998;2022-07-29T04:58:36;4.90;;;4.40;;
9156;SDS011;4613;48.392;9.998;2022-07-29T05:01:07;4.67;;;4.27;;
9156;SDS011;4613;48.392;9.998;2022-07-29T05:03:38;4.20;;;3.80;;
9156;SDS011;4613;48.392;9.998;2022-07-29T05:06:09;5.30;;;4.20;;
9156;SDS011;4613;48.392;9.998;2022-07-29T05:08:40;5.40;;;4.87;;
9156;SDS011;4613;48.392;9.998;2022-07-29T05:11:11;7.87;;;6.37;;
9156;SDS011;4613;48.392;9.998;2022-07-29T05:13:42;7.83;;;7.07;;
9156;SDS011;4613;48.392;9.998;2022-07-29T05:16:13;8.43;;;7.53;;
9156;SDS011;4613;48.392;9.998;2022-07-29T05:18:44;8.03;;;7.30;;
9156;SDS011;4613;48.392;9.998;2022-07-29T05:21:15;9.63;;;6.87;;
9156;SDS011;4613;48.392;9.998;2022-07-29T05:23:45;6.83;;;6.13;;
9156;SDS011;4613;48.392;9.998;2022-07-29T05:26:16;8.40;;;6.90;;
9156;SDS011;4613;48.392;9.998;2022-07-29T05:28:47;7.70;;;6.33;;
9156;SDS011;4613;48.392;9.998;2022-07-29T05:31:18;6.83;;;5.50;;
9156;SDS011;4613;48.392;9.998;2022-07-29T05:33:49;6.97;;;6.37;;
9156;SDS011;4613;48.392;9.998;2022-07-29T05:36:20;7.40;;;6.70;;
9156;SDS011;4613;48.392;9.998;2022-07-29T05:38:51;6.47;;;5.87;;
9156;SDS011;4613;48.392;9.998;2022-07-29T05:41:23;8.87;;;6.47;;
9156;SDS011;4613;48.392;9.998;2022-07-29T05:43:54;6.87;;;5.33;;
9156;SDS011;4613;48.392;9.998;2022-07-29T05:46:25;6.80;;;5.67;;
9156;SDS011;4613;48.392;9.998;2022-07-29T05:48:56;6.17;;;4.87;;
9156;SDS011;4613;48.392;9.998;2022-07-29T05:51:27;6.27;;;5.10;;
9156;SDS011;4613;48.392;9.998;2022-07-29T05:53:58;6.23;;;5.53;;
9156;SDS011;4613;48.392;9.998;2022-07-29T05:56:29;6.60;;;5.70;;
9156;SDS011;4613;48.392;9.998;2022-07-29T05:58:59;5.10;;;4.60;;
9156;SDS011;4613;48.392;9.998;2022-07-29T06:01:31;4.90;;;4.40;;
9156;SDS011;4613;48.392;9.998;2022-07-29T06:04:01;5.43;;;4.73;;
9156;SDS011;4613;48.392;9.998;2022-07-29T06:06:33;5.20;;;4.70;;
9156;SDS011;4613;48.392;9.998;2022-07-29T06:09:04;5.67;;;4.93;;
9156;SDS011;4613;48.392;9.998;2022-07-29T06:11:35;5.83;;;5.27;;
9156;SDS011;4613;48.392;9.998;2022-07-29T06:14:06;7.30;;;5.40;;
9156;SDS011;4613;48.392;9.998;2022-07-29T06:16:37;4.87;;;4.47;;
9156;SDS011;4613;48.392;9.998;2022-07-29T06:19:09;5.40;;;4.90;;
9156;SDS011;4613;48.392;9.998;2022-07-29T06:21:43;6.50;;;4.73;;
9156;SDS011;4613;48.392;9.998;2022-07-29T06:24:15;5.93;;;4.57;;
9156;SDS011;4613;48.392;9.998;2022-07-29T06:26:46;5.97;;;4.27;;
9156;SDS011;4613;48.392;9.998;2022-07-29T06:29:16;6.17;;;4.73;;
9156;SDS011;4613;48.392;9.998;2022-07-29T06:31:47;6.90;;;4.50;;
9156;SDS011;4613;48.392;9.998;2022-07-29T06:34:18;5.50;;;5.00;;
9156;SDS011;4613;48.392;9.998;2022-07-29T06:36:49;5.00;;;4.23;;
9156;SDS011;4613;48.392;9.998;2022-07-29T06:39:20;4.80;;;4.30;;
9156;SDS011;4613;48.392;9.998;2022-07-29T06:41:51;5.37;;;4.90;;
9156;SDS011;4613;48.392;9.998;2022-07-29T06:44:28;5.20;;;4.80;;
9156;SDS011;4613;48.392;9.998;2022-07-29T06:47:00;7.40;;;5.67;;
9156;SDS011;4613;48.392;9.998;2022-07-29T06:49:31;6.50;;;5.17;;
9156;SDS011;4613;48.392;9.998;2022-07-29T06:52:02;6.80;;;5.63;;
9156;SDS011;4613;48.392;9.998;2022-07-29T06:54:33;7.00;;;5.20;;
9156;SDS011;4613;48.392;9.998;2022-07-29T06:57:04;5.70;;;5.30;;
9156;SDS011;4613;48.392;9.998;2022-07-29T06:59:35;5.80;;;4.90;;
9156;SDS011;4613;48.392;9.998;2022-07-29T07:02:06;5.87;;;5.27;;
9156;SDS011;4613;48.392;9.998;2022-07-29T07:04:37;6.63;;;5.43;;
9156;SDS011;4613;48.392;9.998;2022-07-29T07:07:08;7.63;;;6.07;;
9156;SDS011;4613;48.392;9.998;2022-07-29T07:09:39;7.77;;;6.03;;
9156;SDS011;4613;48.392;9.998;2022-07-29T07:12:09;8.07;;;5.80;;
9156;SDS011;4613;48.392;9.998;2022-07-29T07:14:40;8.60;;;5.67;;
9156;SDS011;4613;48.392;9.998;2022-07-29T07:17:11;6.37;;;5.87;;
9156;SDS011;4613;48.392;9.998;2022-07-29T07:19:42;7.30;;;5.47;;
9156;SDS011;4613;48.392;9.998;2022-07-29T07:22:13;6.10;;;5.40;;
9156;SDS011;4613;48.392;9.998;2022-07-29T07:24:44;6.53;;;5.07;;
9156;SDS011;4613;48.392;9.998;2022-07-29T07:27:15;5.87;;;5.37;;
9156;SDS011;4613;48.392;9.998;2022-07-29T07:29:46;8.07;;;5.23;;
9156;SDS011;4613;48.392;9.998;2022-07-29T07:32:16;6.30;;;5.47;;
9156;SDS011;4613;48.392;9.998;2022-07-29T07:34:47;5.33;;;4.67;;
9156;SDS011;4613;48.392;9.998;2022-07-29T07:37:18;5.93;;;5.37;;
9156;SDS011;4613;48.392;9.998;2022-07-29T07:39:51;6.40;;;5.20;;
9156;SDS011;4613;48.392;9.998;2022-07-29T07:42:22;6.67;;;5.77;;
9156;SDS011;4613;48.392;9.998;2022-07-29T07:44:54;6.10;;;5.20;;
9156;SDS011;4613;48.392;9.998;2022-07-29T07:47:25;6.13;;;5.47;;
9156;SDS011;4613;48.392;9.998;2022-07-29T07:49:56;7.33;;;5.37;;
9156;SDS011;4613;48.392;9.998;2022-07-29T07:52:27;5.00;;;4.60;;
9156;SDS011;4613;48.392;9.998;2022-07-29T07:54:58;5.13;;;4.20;;
9156;SDS011;4613;48.392;9.998;2022-07-29T07:57:30;5.67;;;4.40;;
9156;SDS011;4613;48.392;9.998;2022-07-29T08:00:01;4.30;;;3.90;;
9156;SDS011;4613;48.392;9.998;2022-07-29T08:02:42;5.90;;;4.13;;
9156;SDS011;4613;48.392;9.998;2022-07-29T08:05:15;5.07;;;4.07;;
9156;SDS011;4613;48.392;9.998;2022-07-29T08:07:47;4.63;;;4.20;;
9156;SDS011;4613;48.392;9.998;2022-07-29T08:10:18;5.30;;;4.20;;
9156;SDS011;4613;48.392;9.998;2022-07-29T08:13:09;4.20;;;3.80;;
9156;SDS011;4613;48.392;9.998;2022-07-29T08:15:42;4.30;;;3.60;;
9156;SDS011;4613;48.392;9.998;2022-07-29T08:18:15;6.93;;;3.60;;
9156;SDS011;4613;48.392;9.998;2022-07-29T08:20:45;3.70;;;3.40;;
9156;SDS011;4613;48.392;9.998;2022-07-29T08:23:17;5.93;;;3.37;;
9156;SDS011;4613;48.392;9.998;2022-07-29T08:25:49;4.47;;;3.30;;
9156;SDS011;4613;48.392;9.998;2022-07-29T08:28:20;3.03;;;2.73;;
9156;SDS011;4613;48.392;9.998;2022-07-29T08:30:51;3.57;;;3.27;;
9156;SDS011;4613;48.392;9.998;2022-07-29T08:33:22;3.90;;;2.80;;
9156;SDS011;4613;48.392;9.998;2022-07-29T08:35:53;4.67;;;2.83;;
9156;SDS011;4613;48.392;9.998;2022-07-29T08:38:24;2.90;;;2.63;;
9156;SDS011;4613;48.392;9.998;2022-07-29T08:40:56;3.57;;;2.53;;
9156;SDS011;4613;48.392;9.998;2022-07-29T08:43:28;6.20;;;3.30;;
9156;SDS011;4613;48.392;9.998;2022-07-29T08:45:59;2.77;;;2.50;;
9156;SDS011;4613;48.392;9.998;2022-07-29T08:48:32;3.67;;;2.60;;
9156;SDS011;4613;48.392;9.998;2022-07-29T08:51:03;2.77;;;2.50;;
9156;SDS011;4613;48.392;9.998;2022-07-29T08:53:35;3.17;;;2.80;;
9156;SDS011;4613;48.392;9.998;2022-07-29T08:56:11;2.70;;;2.50;;
9156;SDS011;4613;48.392;9.998;2022-07-29T08:58:49;2.70;;;2.50;;
9156;SDS011;4613;48.392;9.998;2022-07-29T09:01:21;3.10;;;2.77;;
9156;SDS011;4613;48.392;9.998;2022-07-29T09:03:55;2.20;;;2.00;;
9156;SDS011;4613;48.392;9.998;2022-07-29T09:06:28;3.27;;;2.97;;
9156;SDS011;4613;48.392;9.998;2022-07-29T09:09:03;2.90;;;2.60;;
9156;SDS011;4613;48.392;9.998;2022-07-29T09:11:34;4.10;;;2.50;;
9156;SDS011;4613;48.392;9.998;2022-07-29T09:14:07;3.10;;;2.73;;
9156;SDS011;4613;48.392;9.998;2022-07-29T09:16:59;2.83;;;2.63;;
9156;SDS011;4613;48.392;9.998;2022-07-29T09:19:31;3.40;;;3.10;;
9156;SDS011;4613;48.392;9.998;2022-07-29T09:22:07;3.07;;;2.80;;
9156;SDS011;4613;48.392;9.998;2022-07-29T09:27:23;4.87;;;2.90;;
9156;SDS011;4613;48.392;9.998;2022-07-29T09:29:59;4.50;;;3.37;;
9156;SDS011;4613;48.392;9.998;2022-07-29T09:32:56;3.40;;;3.10;;
9156;SDS011;4613;48.392;9.998;2022-07-29T09:35:30;3.33;;;3.07;;
9156;SDS011;4613;48.392;9.998;2022-07-29T09:38:13;3.10;;;2.90;;
9156;SDS011;4613;48.392;9.998;2022-07-29T09:40:55;3.10;;;2.73;;
9156;SDS011;4613;48.392;9.998;2022-07-29T09:43:27;3.70;;;3.27;;
9156;SDS011;4613;48.392;9.998;2022-07-29T09:46:31;4.23;;;3.20;;
9156;SDS011;4613;48.392;9.998;2022-07-29T09:49:08;3.90;;;3.10;;
9156;SDS011;4613;48.392;9.998;2022-07-29T09:51:41;2.90;;;2.70;;
9156;SDS011;4613;48.392;9.998;2022-07-29T09:54:22;3.47;;;3.17;;
9156;SDS011;4613;48.392;9.998;2022-07-29T09:56:56;3.97;;;3.33;;
9156;SDS011;4613;48.392;9.998;2022-07-29T09:59:27;4.63;;;3.90;;
9156;SDS011;4613;48.392;9.998;2022-07-29T10:01:59;3.30;;;3.10;;
9156;SDS011;4613;48.392;9.998;2022-07-29T10:05:04;3.40;;;3.10;;
9156;SDS011;4613;48.392;9.998;2022-07-29T10:12:55;3.50;;;2.90;;
9156;SDS011;4613;48.392;9.998;2022-07-29T10:15:35;5.00;;;3.60;;
9156;SDS011;4613;48.392;9.998;2022-07-29T10:18:09;4.20;;;3.17;;
9156;SDS011;4613;48.392;9.998;2022-07-29T10:20:41;2.80;;;2.60;;
9156;SDS011;4613;48.392;9.998;2022-07-29T10:23:12;3.70;;;2.87;;
9156;SDS011;4613;48.392;9.998;2022-07-29T10:25:44;2.80;;;2.60;;
9156;SDS011;4613;48.392;9.998;2022-07-29T10:28:16;3.87;;;2.80;;
9156;SDS011;4613;48.392;9.998;2022-07-29T10:30:48;2.93;;;2.60;;
9156;SDS011;4613;48.392;9.998;2022-07-29T10:33:27;2.90;;;2.70;;
9156;SDS011;4613;48.392;9.998;2022-07-29T10:44:24;2.87;;;2.67;;
9156;SDS011;4613;48.392;9.998;2022-07-29T10:46:57;3.03;;;2.80;;
9156;SDS011;4613;48.392;9.998;2022-07-29T10:49:29;4.23;;;2.80;;
9156;SDS011;4613;48.392;9.998;2022-07-29T10:52:01;3.90;;;2.90;;
9156;SDS011;4613;48.392;9.998;2022-07-29T10:59:49;2.93;;;2.73;;
9156;SDS011;4613;48.392;9.998;2022-07-29T11:05:11;5.00;;;3.70;;
9156;SDS011;4613;48.392;9.998;2022-07-29T11:10:42;3.40;;;3.10;;
9156;SDS011;4613;48.392;9.998;2022-07-29T11:13:17;3.03;;;2.77;;
9156;SDS011;4613;48.392;9.998;2022-07-29T11:16:18;2.70;;;2.50;;
9156;SDS011;4613;48.392;9.998;2022-07-29T11:21:44;4.27;;;2.50;;
9156;SDS011;4613;48.392;9.998;2022-07-29T11:24:21;5.40;;;2.77;;
9156;SDS011;4613;48.392;9.998;2022-07-29T11:27:11;2.93;;;2.63;;
9156;SDS011;4613;48.392;9.998;2022-07-29T11:32:23;2.77;;;2.50;;
9156;SDS011;4613;48.392;9.998;2022-07-29T11:35:12;4.47;;;2.63;;
9156;SDS011;4613;48.392;9.998;2022-07-29T11:38:23;2.50;;;2.30;;
9156;SDS011;4613;48.392;9.998;2022-07-29T11:51:33;3.83;;;2.40;;
9156;SDS011;4613;48.392;9.998;2022-07-29T11:54:24;3.17;;;2.40;;
9156;SDS011;4613;48.392;9.998;2022-07-29T11:56:59;3.90;;;2.60;;
9156;SDS011;4613;48.392;9.998;2022-07-29T11:59:30;2.23;;;2.03;;
9156;SDS011;4613;48.392;9.998;2022-07-29T12:02:08;2.50;;;2.30;;
9156;SDS011;4613;48.392;9.998;2022-07-29T12:07:27;2.03;;;1.93;;
9156;SDS011;4613;48.392;9.998;2022-07-29T12:10:02;3.40;;;2.30;;
9156;SDS011;4613;48.392;9.998;2022-07-29T12:12:35;3.70;;;2.53;;
9156;SDS011;4613;48.392;9.998;2022-07-29T12:15:10;4.43;;;2.50;;
9156;SDS011;4613;48.392;9.998;2022-07-29T12:17:45;2.57;;;2.37;;
9156;SDS011;4613;48.392;9.998;2022-07-29T12:20:23;2.90;;;2.40;;
9156;SDS011;4613;48.392;9.998;2022-07-29T12:22:58;2.60;;;2.40;;
9156;SDS011;4613;48.392;9.998;2022-07-29T12:25:38;2.30;;;2.20;;
9156;SDS011;4613;48.392;9.998;2022-07-29T12:28:11;2.83;;;2.43;;
9156;SDS011;4613;48.392;9.998;2022-07-29T12:30:48;2.20;;;2.00;;
9156;SDS011;4613;48.392;9.998;2022-07-29T12:35:51;2.60;;;2.40;;
9156;SDS011;4613;48.392;9.998;2022-07-29T12:38:33;4.30;;;2.30;;
9156;SDS011;4613;48.392;9.998;2022-07-29T12:41:05;2.53;;;2.33;;
9156;SDS011;4613;48.392;9.998;2022-07-29T12:43:36;3.30;;;2.80;;
9156;SDS011;4613;48.392;9.998;2022-07-29T12:46:11;2.97;;;2.50;;
9156;SDS011;4613;48.392;9.998;2022-07-29T12:48:43;4.23;;;3.20;;
9156;SDS011;4613;48.392;9.998;2022-07-29T12:51:14;3.10;;;2.80;;
9156;SDS011;4613;48.392;9.998;2022-07-29T12:56:37;3.80;;;2.60;;
9156;SDS011;4613;48.392;9.998;2022-07-29T12:59:16;2.90;;;2.60;;
9156;SDS011;4613;48.392;9.998;2022-07-29T13:01:50;2.80;;;2.60;;
9156;SDS011;4613;48.392;9.998;2022-07-29T13:04:25;3.93;;;2.30;;
9156;SDS011;4613;48.392;9.998;2022-07-29T13:06:59;4.47;;;2.20;;
9156;SDS011;4613;48.392;9.998;2022-07-29T13:09:38;3.07;;;2.10;;
9156;SDS011;4613;48.392;9.998;2022-07-29T13:12:14;2.33;;;2.13;;
9156;SDS011;4613;48.392;9.998;2022-07-29T13:14:46;2.40;;;2.20;;
9156;SDS011;4613;48.392;9.998;2022-07-29T13:17:21;4.20;;;2.37;;
9156;SDS011;4613;48.392;9.998;2022-07-29T13:20:04;2.13;;;1.93;;
9156;SDS011;4613;48.392;9.998;2022-07-29T13:22:36;2.90;;;2.17;;
9156;SDS011;4613;48.392;9.998;2022-07-29T13:25:08;3.13;;;2.30;;
9156;SDS011;4613;48.392;9.998;2022-07-29T13:27:39;3.37;;;2.10;;
9156;SDS011;4613;48.392;9.998;2022-07-29T13:30:10;2.27;;;2.17;;
9156;SDS011;4613;48.392;9.998;2022-07-29T13:32:42;2.50;;;2.30;;
9156;SDS011;4613;48.392;9.998;2022-07-29T13:35:13;3.70;;;2.27;;
9156;SDS011;4613;48.392;9.998;2022-07-29T13:37:44;2.90;;;2.60;;
9156;SDS011;4613;48.392;9.998;2022-07-29T13:40:15;11.00;;;2.43;;
9156;SDS011;4613;48.392;9.998;2022-07-29T13:42:46;4.07;;;2.83;;
9156;SDS011;4613;48.392;9.998;2022-07-29T13:45:17;6.23;;;2.53;;
9156;SDS011;4613;48.392;9.998;2022-07-29T13:47:49;2.63;;;2.13;;
9156;SDS011;4613;48.392;9.998;2022-07-29T13:50:20;4.27;;;2.40;;
9156;SDS011;4613;48.392;9.998;2022-07-29T13:52:50;3.17;;;2.30;;
9156;SDS011;4613;48.392;9.998;2022-07-29T13:55:21;3.20;;;2.40;;
9156;SDS011;4613;48.392;9.998;2022-07-29T13:57:52;2.47;;;2.07;;
9156;SDS011;4613;48.392;9.998;2022-07-29T14:00:23;2.73;;;2.23;;
9156;SDS011;4613;48.392;9.998;2022-07-29T14:02:54;4.23;;;2.27;;
9156;SDS011;4613;48.392;9.998;2022-07-29T14:05:25;2.57;;;2.37;;
9156;SDS011;4613;48.392;9.998;2022-07-29T14:07:56;3.20;;;2.60;;
9156;SDS011;4613;48.392;9.998;2022-07-29T14:10:27;3.20;;;2.90;;
9156;SDS011;4613;48.392;9.998;2022-07-29T14:12:58;5.87;;;3.07;;
9156;SDS011;4613;48.392;9.998;2022-07-29T14:15:29;5.47;;;2.67;;
9156;SDS011;4613;48.392;9.998;2022-07-29T14:18:00;3.13;;;2.70;;
9156;SDS011;4613;48.392;9.998;2022-07-29T14:20:31;4.37;;;2.60;;
9156;SDS011;4613;48.392;9.998;2022-07-29T14:23:02;2.93;;;2.40;;
9156;SDS011;4613;48.392;9.998;2022-07-29T14:25:33;4.07;;;2.80;;
9156;SDS011;4613;48.392;9.998;2022-07-29T14:28:04;3.53;;;2.70;;
9156;SDS011;4613;48.392;9.998;2022-07-29T14:30:36;3.07;;;2.60;;
9156;SDS011;4613;48.392;9.998;2022-07-29T14:33:08;4.43;;;3.23;;
9156;SDS011;4613;48.392;9.998;2022-07-29T14:35:39;4.50;;;2.77;;
9156;SDS011;4613;48.392;9.998;2022-07-29T14:38:11;5.17;;;2.77;;
9156;SDS011;4613;48.392;9.998;2022-07-29T14:40:42;5.00;;;3.23;;
9156;SDS011;4613;48.392;9.998;2022-07-29T14:43:13;3.07;;;2.77;;
9156;SDS011;4613;48.392;9.998;2022-07-29T14:45:46;5.43;;;2.87;;
9156;SDS011;4613;48.392;9.998;2022-07-29T14:48:16;3.30;;;3.00;;
9156;SDS011;4613;48.392;9.998;2022-07-29T14:50:47;3.77;;;2.90;;
9156;SDS011;4613;48.392;9.998;2022-07-29T14:53:18;6.50;;;2.50;;
9156;SDS011;4613;48.392;9.998;2022-07-29T14:55:49;3.73;;;2.90;;
9156;SDS011;4613;48.392;9.998;2022-07-29T14:58:20;4.77;;;3.13;;
9156;SDS011;4613;48.392;9.998;2022-07-29T15:01:11;4.27;;;3.30;;
9156;SDS011;4613;48.392;9.998;2022-07-29T15:03:42;5.03;;;3.47;;
9156;SDS011;4613;48.392;9.998;2022-07-29T15:06:13;5.23;;;3.63;;
9156;SDS011;4613;48.392;9.998;2022-07-29T15:08:44;4.53;;;3.43;;
9156;SDS011;4613;48.392;9.998;2022-07-29T15:11:15;4.87;;;3.73;;
9156;SDS011;4613;48.392;9.998;2022-07-29T15:13:46;5.87;;;3.30;;
9156;SDS011;4613;48.392;9.998;2022-07-29T15:16:17;3.40;;;3.10;;
9156;SDS011;4613;48.392;9.998;2022-07-29T15:18:48;4.57;;;3.23;;
9156;SDS011;4613;48.392;9.998;2022-07-29T15:21:19;4.33;;;3.60;;
9156;SDS011;4613;48.392;9.998;2022-07-29T15:23:50;4.57;;;3.37;;
9156;SDS011;4613;48.392;9.998;2022-07-29T15:26:21;5.07;;;3.50;;
9156;SDS011;4613;48.392;9.998;2022-07-29T15:28:52;6.43;;;3.43;;
9156;SDS011;4613;48.392;9.998;2022-07-29T15:31:22;5.87;;;3.67;;
9156;SDS011;4613;48.392;9.998;2022-07-29T15:33:53;6.47;;;4.60;;
9156;SDS011;4613;48.392;9.998;2022-07-29T15:36:24;5.53;;;4.13;;
9156;SDS011;4613;48.392;9.998;2022-07-29T15:38:55;5.37;;;4.07;;
9156;SDS011;4613;48.392;9.998;2022-07-29T15:41:26;4.37;;;3.97;;
9156;SDS011;4613;48.392;9.998;2022-07-29T15:43:57;7.17;;;4.73;;
9156;SDS011;4613;48.392;9.998;2022-07-29T15:46:28;6.13;;;4.03;;
9156;SDS011;4613;48.392;9.998;2022-07-29T15:49:17;5.13;;;4.10;;
9156;SDS011;4613;48.392;9.998;2022-07-29T15:51:48;4.90;;;3.80;;
9156;SDS011;4613;48.392;9.998;2022-07-29T15:54:19;4.40;;;4.00;;
9156;SDS011;4613;48.392;9.998;2022-07-29T15:56:50;5.70;;;3.63;;
9156;SDS011;4613;48.392;9.998;2022-07-29T15:59:21;4.30;;;3.90;;
9156;SDS011;4613;48.392;9.998;2022-07-29T16:01:52;4.30;;;3.90;;
9156;SDS011;4613;48.392;9.998;2022-07-29T16:04:23;7.70;;;3.77;;
9156;SDS011;4613;48.392;9.998;2022-07-29T16:06:54;4.07;;;3.70;;
9156;SDS011;4613;48.392;9.998;2022-07-29T16:09:26;6.00;;;3.73;;
9156;SDS011;4613;48.392;9.998;2022-07-29T16:11:58;5.00;;;3.63;;
9156;SDS011;4613;48.392;9.998;2022-07-29T16:14:28;6.30;;;3.93;;
9156;SDS011;4613;48.392;9.998;2022-07-29T16:16:59;4.07;;;3.63;;
9156;SDS011;4613;48.392;9.998;2022-07-29T16:19:32;4.23;;;3.83;;
9156;SDS011;4613;48.392;9.998;2022-07-29T16:22:03;4.83;;;4.20;;
9156;SDS011;4613;48.392;9.998;2022-07-29T16:24:35;5.43;;;3.93;;
9156;SDS011;4613;48.392;9.998;2022-07-29T16:27:06;6.20;;;4.73;;
9156;SDS011;4613;48.392;9.998;2022-07-29T16:29:37;4.50;;;4.10;;
9156;SDS011;4613;48.392;9.998;2022-07-29T16:32:08;7.13;;;4.77;;
9156;SDS011;4613;48.392;9.998;2022-07-29T16:34:39;5.70;;;4.30;;
9156;SDS011;4613;48.392;9.998;2022-07-29T16:37:10;6.63;;;4.70;;
9156;SDS011;4613;48.392;9.998;2022-07-29T16:39:42;6.60;;;4.80;;
9156;SDS011;4613;48.392;9.998;2022-07-29T16:42:13;5.23;;;4.30;;
9156;SDS011;4613;48.392;9.998;2022-07-29T16:44:44;5.63;;;5.13;;
9156;SDS011;4613;48.392;9.998;2022-07-29T16:47:15;6.37;;;4.80;;
9156;SDS011;4613;48.392;9.998;2022-07-29T16:49:46;6.17;;;4.47;;